createdAt,value
2023-03-02T00:01:10.411Z,97849.63
2023-03-02T00:03:40.476Z,97845.72
2023-03-02T00:06:08.908Z,97849.88
2023-03-02T00:08:36.745Z,97853.09
2023-03-02T00:11:03.569Z,97845.47
2023-03-02T00:13:32.088Z,97844.75
2023-03-02T00:15:58.905Z,97845.28
2023-03-02T00:18:25.581Z,97849.19
2023-03-02T00:20:52.206Z,97842.31
2023-03-02T00:23:19.219Z,97840.84
2023-03-02T00:25:45.905Z,97840.34
2023-03-02T00:28:12.596Z,97844.25
2023-03-02T00:30:39.291Z,97843.28
2023-03-02T00:33:05.934Z,97842.34
2023-03-02T00:35:38.048Z,97828.34
2023-03-02T00:38:04.840Z,97843.31
2023-03-02T00:40:31.467Z,97824.69
2023-03-02T00:42:58.100Z,97832.78
2023-03-02T00:45:24.999Z,97834.25
2023-03-02T00:47:51.709Z,97835.97
2023-03-02T00:50:18.366Z,97835.69
2023-03-02T00:52:45.037Z,97834.97
2023-03-02T00:55:11.718Z,97831.56
2023-03-02T00:57:38.329Z,97827.88
2023-03-02T01:00:05.978Z,97823.47
2023-03-02T01:02:32.730Z,97826.41
2023-03-02T01:04:59.393Z,97823.69
2023-03-02T01:07:28.304Z,97816.59
2023-03-02T01:09:54.990Z,97811.44
2023-03-02T01:12:24.113Z,97814.66
2023-03-02T01:14:50.955Z,97808.78
2023-03-02T01:17:17.680Z,97801.66
2023-03-02T01:19:44.666Z,97796.28
2023-03-02T01:22:11.582Z,97802.16
2023-03-02T01:24:38.181Z,97800.44
2023-03-02T01:27:04.811Z,97794.56
2023-03-02T01:29:31.543Z,97793.88
2023-03-02T01:31:58.244Z,97788.00
2023-03-02T01:34:25.005Z,97778.94
2023-03-02T01:36:51.687Z,97775.50
2023-03-02T01:39:18.464Z,97767.91
2023-03-02T01:41:46.485Z,97774.28
2023-03-02T01:44:44.626Z,97774.31
2023-03-02T01:47:26.807Z,97761.56
2023-03-02T01:49:59.148Z,97770.16
2023-03-02T01:52:26.785Z,97763.06
2023-03-02T01:54:57.659Z,97756.69
2023-03-02T01:57:32.802Z,97759.91
2023-03-02T02:00:08.565Z,97756.94
2023-03-02T02:02:36.468Z,97756.44
2023-03-02T02:05:04.128Z,97762.34
2023-03-02T02:07:31.346Z,97756.69
2023-03-02T02:09:58.821Z,97751.78
2023-03-02T02:12:25.611Z,97746.16
2023-03-02T02:14:53.969Z,97749.84
2023-03-02T02:17:20.712Z,97746.44
2023-03-02T02:20:16.462Z,97737.63
2023-03-02T02:23:17.554Z,97718.25
2023-03-02T02:26:13.895Z,97715.84
2023-03-02T02:29:14.664Z,97720.00
2023-03-02T02:32:05.122Z,97721.97
2023-03-02T02:34:58.825Z,97711.66
2023-03-02T02:37:38.478Z,97712.41
2023-03-02T02:40:10.375Z,97719.50
2023-03-02T02:42:42.226Z,97709.22
2023-03-02T02:45:21.099Z,97721.94
2023-03-02T02:47:49.468Z,97713.38
2023-03-02T02:50:35.360Z,97713.13
2023-03-02T02:53:26.098Z,97711.66
2023-03-02T02:55:56.879Z,97724.91
2023-03-02T02:58:51.101Z,97718.53
2023-03-02T03:01:27.716Z,97729.31
2023-03-02T03:04:02.211Z,97728.56
2023-03-02T03:06:38.511Z,97733.97
2023-03-02T03:09:10.337Z,97728.56
2023-03-02T03:11:41.348Z,97729.06
2023-03-02T03:14:11.596Z,97720.00
2023-03-02T03:16:41.530Z,97725.66
2023-03-02T03:19:11.877Z,97718.56
2023-03-02T03:21:38.560Z,97722.22
2023-03-02T03:24:05.753Z,97725.41
2023-03-02T03:26:32.762Z,97723.94
2023-03-02T03:28:59.876Z,97719.28
2023-03-02T03:31:27.452Z,97723.69
2023-03-02T03:33:55.825Z,97717.81
2023-03-02T03:36:22.817Z,97724.19
2023-03-02T03:38:49.508Z,97719.28
2023-03-02T03:41:16.276Z,97715.88
2023-03-02T03:43:43.057Z,97724.69
2023-03-02T03:46:09.696Z,97715.59
2023-03-02T03:48:36.594Z,97718.06
2023-03-02T03:51:03.787Z,97722.94
2023-03-02T03:53:30.503Z,97727.59
2023-03-02T03:55:57.213Z,97713.88
2023-03-02T03:58:25.315Z,97716.56
2023-03-02T04:00:52.881Z,97709.50
2023-03-02T04:03:20.519Z,97717.56
2023-03-02T04:05:48.177Z,97715.38
2023-03-02T04:08:14.825Z,97714.88
2023-03-02T04:10:41.804Z,97708.03
2023-03-02T04:13:08.674Z,97712.66
2023-03-02T04:15:35.471Z,97718.28
2023-03-02T04:18:02.484Z,97708.75
2023-03-02T04:20:29.743Z,97711.44
2023-03-02T04:22:57.761Z,97710.72
2023-03-02T04:25:26.571Z,97709.00
2023-03-02T04:27:53.855Z,97711.19
2023-03-02T04:30:24.802Z,97704.59
2023-03-02T04:32:51.581Z,97712.19
2023-03-02T04:35:18.297Z,97713.91
2023-03-02T04:37:46.989Z,97702.66
2023-03-02T04:40:14.737Z,97704.38
2023-03-02T04:42:41.825Z,97700.69
2023-03-02T04:45:09.310Z,97694.06
2023-03-02T04:47:36.013Z,97700.44
2023-03-02T04:50:03.287Z,97701.16
2023-03-02T04:52:29.962Z,97700.94
2023-03-02T04:54:56.602Z,97694.06
2023-03-02T04:57:23.258Z,97701.16
2023-03-02T04:59:49.885Z,97703.16
2023-03-02T05:02:16.624Z,97707.53
2023-03-02T05:04:43.309Z,97713.66
2023-03-02T05:07:09.970Z,97699.22
2023-03-02T05:09:36.727Z,97698.25
2023-03-02T05:12:03.913Z,97699.94
2023-03-02T05:14:30.983Z,97701.91
2023-03-02T05:16:57.789Z,97700.44
2023-03-02T05:19:24.453Z,97699.47
2023-03-02T05:21:51.111Z,97703.63
2023-03-02T05:24:17.806Z,97695.81
2023-03-02T05:26:44.489Z,97692.38
2023-03-02T05:29:11.210Z,97688.22
2023-03-02T05:31:41.414Z,97687.22
2023-03-02T05:34:11.513Z,97700.44
2023-03-02T05:36:38.903Z,97698.25
2023-03-02T05:39:06.932Z,97692.38
2023-03-02T05:41:33.900Z,97698.97
2023-03-02T05:44:01.108Z,97699.72
2023-03-02T05:46:28.201Z,97700.44
2023-03-02T05:48:54.829Z,97695.53
2023-03-02T05:51:21.655Z,97697.00
2023-03-02T05:53:48.405Z,97699.22
2023-03-02T05:56:15.051Z,97702.41
2023-03-02T05:58:41.699Z,97707.31
2023-03-02T06:01:12.665Z,97698.50
2023-03-02T06:03:41.832Z,97701.94
2023-03-02T06:06:08.430Z,97698.50
2023-03-02T06:08:35.193Z,97704.84
2023-03-02T06:11:01.890Z,97704.38
2023-03-02T06:13:28.548Z,97706.09
2023-03-02T06:15:55.834Z,97709.50
2023-03-02T06:18:22.469Z,97706.31
2023-03-02T06:20:50.566Z,97711.72
2023-03-02T06:23:17.295Z,97720.03
2023-03-02T06:25:48.588Z,97717.09
2023-03-02T06:28:16.613Z,97719.03
2023-03-02T06:30:43.316Z,97722.47
2023-03-02T06:33:10.099Z,97725.41
2023-03-02T06:35:36.823Z,97726.63
2023-03-02T06:38:03.673Z,97721.47
2023-03-02T06:40:31.034Z,97713.91
2023-03-02T06:43:00.924Z,97719.53
2023-03-02T06:45:29.240Z,97722.69
2023-03-02T06:47:56.133Z,97708.00
2023-03-02T06:50:22.774Z,97710.47
2023-03-02T06:52:49.401Z,97713.63
2023-03-02T06:55:16.070Z,97701.66
2023-03-02T06:57:42.713Z,97709.47
2023-03-02T07:00:15.454Z,97706.28
2023-03-02T07:02:42.104Z,97703.34
2023-03-02T07:05:08.962Z,97704.09
2023-03-02T07:07:35.686Z,97705.53
2023-03-02T07:10:02.595Z,97700.66
2023-03-02T07:12:29.207Z,97701.41
2023-03-02T07:14:55.883Z,97697.94
2023-03-02T07:17:22.545Z,97719.97
2023-03-02T07:19:49.206Z,97708.94
2023-03-02T07:22:15.895Z,97710.41
2023-03-02T07:24:44.861Z,97721.16
2023-03-02T07:27:11.741Z,97709.91
2023-03-02T07:29:38.466Z,97718.19
2023-03-02T07:32:06.909Z,97714.00
2023-03-02T07:34:33.565Z,97723.03
2023-03-02T07:37:00.302Z,97726.44
2023-03-02T07:39:26.949Z,97720.06
2023-03-02T07:41:53.578Z,97721.69
2023-03-02T07:44:20.292Z,97721.19
2023-03-02T07:46:47.028Z,97727.34
2023-03-02T07:49:13.663Z,97726.34
2023-03-02T07:51:40.324Z,97730.25
2023-03-02T07:54:06.979Z,97724.38
2023-03-02T07:56:33.612Z,97727.22
2023-03-02T07:59:00.246Z,97727.94
2023-03-02T08:01:27.150Z,97717.63
2023-03-02T08:03:53.948Z,97712.13
2023-03-02T08:06:20.796Z,97722.66
2023-03-02T08:08:47.440Z,97717.28
2023-03-02T08:11:17.302Z,97725.84
2023-03-02T08:13:45.453Z,97728.31
2023-03-02T08:16:13.927Z,97723.59
2023-03-02T08:18:41.539Z,97729.25
2023-03-02T08:21:13.394Z,97736.13
2023-03-02T08:23:40.226Z,97728.72
2023-03-02T08:26:07.133Z,97728.19
2023-03-02T08:28:34.669Z,97729.41
2023-03-02T08:31:02.553Z,97723.72
2023-03-02T08:33:30.849Z,97729.34
2023-03-02T08:36:06.623Z,97716.53
2023-03-02T08:38:35.219Z,97711.88
2023-03-02T08:41:09.526Z,97708.59
2023-03-02T08:43:36.434Z,97714.25
2023-03-02T08:46:04.236Z,97713.03
2023-03-02T08:48:31.408Z,97711.50
2023-03-02T08:51:04.974Z,97708.25
2023-03-02T08:53:34.908Z,97721.19
2023-03-02T08:56:01.737Z,97705.84
2023-03-02T08:58:28.816Z,97709.28
2023-03-02T09:00:55.755Z,97706.56
2023-03-02T09:03:22.391Z,97712.50
2023-03-02T09:05:48.986Z,97699.59
2023-03-02T09:08:15.625Z,97712.84
2023-03-02T09:10:42.242Z,97713.00
2023-03-02T09:13:08.867Z,97710.91
2023-03-02T09:15:35.673Z,97716.47
2023-03-02T09:18:02.297Z,97706.91
2023-03-02T09:20:28.991Z,97710.63
2023-03-02T09:22:55.670Z,97710.47
2023-03-02T09:25:22.340Z,97707.22
2023-03-02T09:27:49.032Z,97699.47
2023-03-02T09:30:16.312Z,97713.88
2023-03-02T09:32:43.198Z,97713.81
2023-03-02T09:35:10.372Z,97715.13
2023-03-02T09:37:38.911Z,97712.25
2023-03-02T09:40:16.370Z,97714.66
2023-03-02T09:42:59.609Z,97705.31
2023-03-02T09:45:59.059Z,97711.31
2023-03-02T09:48:59.015Z,97707.78
2023-03-02T09:51:35.046Z,97703.94
2023-03-02T09:54:12.768Z,97702.84
2023-03-02T09:56:52.378Z,97703.19
2023-03-02T09:59:42.024Z,97702.88
2023-03-02T10:02:28.147Z,97701.03
2023-03-02T10:04:57.222Z,97698.53
2023-03-02T10:07:29.203Z,97695.00
2023-03-02T10:10:32.819Z,97683.66
2023-03-02T10:13:05.169Z,97686.47
2023-03-02T10:15:39.011Z,97697.22
2023-03-02T10:18:42.155Z,97688.38
2023-03-02T10:21:09.627Z,97693.69
2023-03-02T10:24:01.039Z,97687.63
2023-03-02T10:26:40.265Z,97681.94
2023-03-02T10:29:21.757Z,97674.94
2023-03-02T10:31:52.924Z,97679.41
2023-03-02T10:34:19.854Z,97682.75
2023-03-02T10:36:47.741Z,97678.56
2023-03-02T10:39:16.088Z,97682.94
2023-03-02T10:41:50.293Z,97679.78
2023-03-02T10:44:25.625Z,97683.56
2023-03-02T10:46:53.834Z,97677.06
2023-03-02T10:49:35.433Z,97677.94
2023-03-02T10:52:12.770Z,97674.97
2023-03-02T10:54:39.603Z,97672.59
2023-03-02T10:57:31.015Z,97667.97
2023-03-02T11:00:22.144Z,97678.19
2023-03-02T11:03:04.197Z,97670.66
2023-03-02T11:05:40.066Z,97666.34
2023-03-02T11:08:10.835Z,97668.00
2023-03-02T11:10:40.839Z,97665.16
2023-03-02T11:13:26.925Z,97660.22
2023-03-02T11:16:02.136Z,97654.78
2023-03-02T11:18:40.138Z,97640.13
2023-03-02T11:21:11.885Z,97642.34
2023-03-02T11:23:53.368Z,97647.44
2023-03-02T11:26:30.560Z,97648.44
2023-03-02T11:29:06.338Z,97642.78
2023-03-02T11:31:41.532Z,97638.88
2023-03-02T11:34:19.972Z,97639.28
2023-03-02T11:37:16.740Z,97631.53
2023-03-02T11:40:20.901Z,97626.56
2023-03-02T11:42:47.970Z,97626.25
2023-03-02T11:45:20.098Z,97621.47
2023-03-02T11:48:08.129Z,97631.47
2023-03-02T11:50:44.390Z,97617.06
2023-03-02T11:53:15.756Z,97622.38
2023-03-02T11:55:49.481Z,97612.03
2023-03-02T11:58:21.749Z,97617.69
2023-03-02T12:00:50.024Z,97606.63
2023-03-02T12:03:23.747Z,97600.09
2023-03-02T12:06:38.875Z,97595.63
2023-03-02T12:09:33.171Z,97596.34
2023-03-02T12:12:33.667Z,97588.06
2023-03-02T12:15:01.178Z,97585.00
2023-03-02T12:17:27.690Z,97586.09
2023-03-02T12:20:08.885Z,97586.09
2023-03-02T12:22:37.512Z,97583.41
2023-03-02T12:25:26.347Z,97582.34
2023-03-02T12:27:54.585Z,97583.44
2023-03-02T12:30:26.694Z,97580.91
2023-03-02T12:32:59.580Z,97579.66
2023-03-02T12:35:26.710Z,97576.03
2023-03-02T12:38:17.864Z,97572.63
2023-03-02T12:40:47.155Z,97571.50
2023-03-02T12:43:33.749Z,97574.44
2023-03-02T12:46:18.832Z,97565.34
2023-03-02T12:48:59.416Z,97575.50
2023-03-02T12:51:29.371Z,97563.91
2023-03-02T12:54:07.684Z,97555.53
2023-03-02T12:56:34.669Z,97560.09
2023-03-02T12:59:01.433Z,97562.47
2023-03-02T13:01:30.265Z,97547.22
2023-03-02T13:03:57.488Z,97553.56
2023-03-02T13:06:27.548Z,97558.09
2023-03-02T13:08:56.995Z,97556.09
2023-03-02T13:11:33.875Z,97542.50
2023-03-02T13:14:03.755Z,97535.97
2023-03-02T13:16:33.380Z,97536.16
2023-03-02T13:19:02.657Z,97537.59
2023-03-02T13:21:37.660Z,97538.50
2023-03-02T13:24:24.720Z,97530.53
2023-03-02T13:27:04.633Z,97534.88
2023-03-02T13:29:31.961Z,97521.78
2023-03-02T13:32:42.060Z,97521.28
2023-03-02T13:35:25.555Z,97516.72
2023-03-02T13:38:14.156Z,97521.63
2023-03-02T13:40:46.081Z,97520.91
2023-03-02T13:43:35.888Z,97520.53
2023-03-02T13:46:35.144Z,97520.91
2023-03-02T13:49:10.708Z,97521.06
2023-03-02T13:51:47.277Z,97523.06
2023-03-02T13:54:22.414Z,97515.09
2023-03-02T13:56:51.225Z,97527.63
2023-03-02T13:59:20.138Z,97525.81
2023-03-02T14:01:46.947Z,97523.63
2023-03-02T14:04:17.581Z,97519.25
2023-03-02T14:06:45.784Z,97519.97
2023-03-02T14:09:12.841Z,97510.19
2023-03-02T14:11:43.452Z,97512.16
2023-03-02T14:14:17.730Z,97505.47
2023-03-02T14:16:44.410Z,97505.28
2023-03-02T14:19:13.714Z,97510.91
2023-03-02T14:21:41.172Z,97516.34
2023-03-02T14:24:07.818Z,97504.22
2023-03-02T14:26:40.888Z,97503.28
2023-03-02T14:29:19.703Z,97503.28
2023-03-02T14:31:46.357Z,97498.03
2023-03-02T14:34:14.804Z,97493.69
2023-03-02T14:36:43.831Z,97497.47
2023-03-02T14:39:23.284Z,97497.66
2023-03-02T14:41:54.111Z,97495.31
2023-03-02T14:44:22.209Z,97489.88
2023-03-02T14:46:48.982Z,97484.94
2023-03-02T14:49:15.699Z,97482.97
2023-03-02T14:51:45.057Z,97484.59
2023-03-02T14:54:17.402Z,97482.94
2023-03-02T14:56:44.225Z,97484.59
2023-03-02T14:59:14.315Z,97475.88
2023-03-02T15:01:43.518Z,97475.88
2023-03-02T15:04:10.524Z,97477.50
2023-03-02T15:06:39.928Z,97479.72
2023-03-02T15:09:06.838Z,97481.16
2023-03-02T15:11:34.159Z,97470.28
2023-03-02T15:14:00.921Z,97470.81
2023-03-02T15:16:27.747Z,97474.44
2023-03-02T15:18:54.496Z,97468.44
2023-03-02T15:21:23.968Z,97480.41
2023-03-02T15:23:51.059Z,97481.53
2023-03-02T15:26:18.035Z,97469.16
2023-03-02T15:28:45.682Z,97486.25
2023-03-02T15:31:16.082Z,97484.03
2023-03-02T15:33:45.180Z,97485.84
2023-03-02T15:36:12.869Z,97479.69
2023-03-02T15:38:39.715Z,97488.22
2023-03-02T15:41:13.756Z,97486.03
2023-03-02T15:43:40.467Z,97488.78
2023-03-02T15:46:09.340Z,97497.09
2023-03-02T15:48:36.997Z,97490.00
2023-03-02T15:51:05.969Z,97493.78
2023-03-02T15:53:37.447Z,97489.81
2023-03-02T15:56:10.445Z,97495.44
2023-03-02T15:58:37.030Z,97490.91
2023-03-02T16:01:07.781Z,97501.94
2023-03-02T16:03:34.551Z,97497.44
2023-03-02T16:06:01.223Z,97499.59
2023-03-02T16:08:27.856Z,97497.59
2023-03-02T16:11:03.185Z,97503.41
2023-03-02T16:13:32.908Z,97504.13
2023-03-02T16:16:04.644Z,97501.41
2023-03-02T16:18:31.463Z,97497.03
2023-03-02T16:20:58.388Z,97503.53
2023-03-02T16:23:25.087Z,97493.19
2023-03-02T16:25:52.339Z,97496.44
2023-03-02T16:28:19.782Z,97495.34
2023-03-02T16:30:47.042Z,97492.97
2023-03-02T16:33:17.258Z,97496.53
2023-03-02T16:35:44.279Z,97493.44
2023-03-02T16:38:10.972Z,97503.56
2023-03-02T16:40:40.143Z,97502.97
2023-03-02T16:43:09.010Z,97504.63
2023-03-02T16:45:35.958Z,97509.34
2023-03-02T16:48:03.858Z,97507.50
2023-03-02T16:50:30.922Z,97511.31
2023-03-02T16:52:58.572Z,97501.28
2023-03-02T16:55:25.823Z,97516.53
2023-03-02T16:57:52.782Z,97515.09
2023-03-02T17:00:20.805Z,97513.44
2023-03-02T17:02:48.444Z,97515.03
2023-03-02T17:05:17.475Z,97518.63
2023-03-02T17:07:44.143Z,97516.78
2023-03-02T17:10:15.188Z,97512.22
2023-03-02T17:12:41.846Z,97519.47
2023-03-02T17:15:09.289Z,97519.06
2023-03-02T17:17:35.941Z,97517.66
2023-03-02T17:20:02.658Z,97526.72
2023-03-02T17:22:29.321Z,97525.28
2023-03-02T17:24:55.939Z,97520.91
2023-03-02T17:27:25.949Z,97520.69
2023-03-02T17:29:53.806Z,97521.59
2023-03-02T17:32:21.741Z,97517.94
2023-03-02T17:34:48.473Z,97520.66
2023-03-02T17:37:17.374Z,97516.09
2023-03-02T17:39:44.005Z,97518.28
2023-03-02T17:42:10.691Z,97517.88
2023-03-02T17:44:40.775Z,97514.44
2023-03-02T17:47:08.342Z,97523.66
2023-03-02T17:49:40.330Z,97522.53
2023-03-02T17:52:07.139Z,97530.47
2023-03-02T17:54:33.783Z,97521.28
2023-03-02T17:57:00.490Z,97522.59
2023-03-02T17:59:27.126Z,97522.53
2023-03-02T18:01:53.753Z,97531.34
2023-03-02T18:04:20.504Z,97525.31
2023-03-02T18:06:47.347Z,97514.09
2023-03-02T18:09:14.027Z,97519.88
2023-03-02T18:11:43.836Z,97513.72
2023-03-02T18:14:15.744Z,97520.41
2023-03-02T18:16:42.456Z,97518.41
2023-03-02T18:19:09.284Z,97518.75
2023-03-02T18:21:36.484Z,97518.75
2023-03-02T18:24:04.030Z,97520.28
2023-03-02T18:26:30.745Z,97519.34
2023-03-02T18:28:57.571Z,97523.66
2023-03-02T18:31:24.337Z,97523.84
2023-03-02T18:33:51.265Z,97521.06
2023-03-02T18:36:18.090Z,97524.09
2023-03-02T18:38:45.191Z,97525.16
2023-03-02T18:41:13.095Z,97520.59
2023-03-02T18:43:41.340Z,97521.47
2023-03-02T18:46:17.549Z,97524.91
2023-03-02T18:48:44.242Z,97535.25
2023-03-02T18:51:10.870Z,97530.91
2023-03-02T18:53:38.152Z,97539.63
2023-03-02T18:56:05.254Z,97543.38
2023-03-02T18:58:34.154Z,97535.56
2023-03-02T19:01:01.979Z,97542.97
2023-03-02T19:03:29.039Z,97542.41
2023-03-02T19:05:58.135Z,97547.81
2023-03-02T19:08:25.971Z,97548.13
2023-03-02T19:10:53.924Z,97546.16
2023-03-02T19:13:20.880Z,97544.50
2023-03-02T19:15:47.849Z,97542.09
2023-03-02T19:18:19.025Z,97555.97
2023-03-02T19:20:46.917Z,97555.56
2023-03-02T19:23:13.613Z,97544.50
2023-03-02T19:25:40.383Z,97546.81
2023-03-02T19:28:07.415Z,97548.47
2023-03-02T19:30:34.777Z,97550.06
2023-03-02T19:33:01.908Z,97556.50
2023-03-02T19:35:29.798Z,97557.16
2023-03-02T19:37:56.453Z,97548.59
2023-03-02T19:40:25.411Z,97550.47
2023-03-02T19:42:53.326Z,97543.16
2023-03-02T19:45:23.808Z,97546.94
2023-03-02T19:47:51.053Z,97554.44
2023-03-02T19:50:19.679Z,97559.13
2023-03-02T19:52:46.887Z,97560.28
2023-03-02T19:55:14.923Z,97553.94
2023-03-02T19:57:43.244Z,97549.97
2023-03-02T20:00:16.467Z,97549.44
2023-03-02T20:02:43.124Z,97547.78
2023-03-02T20:05:10.698Z,97547.66
2023-03-02T20:07:41.291Z,97548.63
2023-03-02T20:10:11.378Z,97555.78
2023-03-02T20:12:40.779Z,97557.59
2023-03-02T20:15:07.860Z,97556.66
2023-03-02T20:17:34.653Z,97549.88
2023-03-02T20:20:03.539Z,97557.59
2023-03-02T20:22:31.297Z,97556.13
2023-03-02T20:24:57.918Z,97557.16
2023-03-02T20:27:24.623Z,97556.84
2023-03-02T20:29:51.287Z,97551.97
2023-03-02T20:32:18.061Z,97553.72
2023-03-02T20:34:45.146Z,97551.44
2023-03-02T20:37:14.916Z,97552.47
2023-03-02T20:39:44.043Z,97553.00
2023-03-02T20:42:12.224Z,97557.56
2023-03-02T20:44:39.016Z,97555.59
2023-03-02T20:47:09.824Z,97552.69
2023-03-02T20:49:37.732Z,97552.69
2023-03-02T20:52:05.184Z,97551.00
2023-03-02T20:54:35.641Z,97553.28
2023-03-02T20:57:02.332Z,97549.34
2023-03-02T20:59:29.338Z,97556.94
2023-03-02T21:01:56.050Z,97552.88
2023-03-02T21:04:23.040Z,97555.34
2023-03-02T21:06:50.376Z,97552.03
2023-03-02T21:09:18.064Z,97555.78
2023-03-02T21:11:46.121Z,97560.16
2023-03-02T21:14:16.256Z,97555.47
2023-03-02T21:16:44.780Z,97544.41
2023-03-02T21:19:17.541Z,97555.25
2023-03-02T21:21:44.684Z,97555.56
2023-03-02T21:24:13.288Z,97557.53
2023-03-02T21:26:41.598Z,97559.28
2023-03-02T21:29:09.449Z,97554.19
2023-03-02T21:31:36.293Z,97556.03
2023-03-02T21:34:03.495Z,97550.75
2023-03-02T21:36:30.449Z,97548.97
2023-03-02T21:38:57.278Z,97550.31
2023-03-02T21:41:24.650Z,97550.69
2023-03-02T21:43:51.465Z,97547.75
2023-03-02T21:46:22.375Z,97542.81
2023-03-02T21:48:51.020Z,97548.72
2023-03-02T21:51:18.199Z,97550.31
2023-03-02T21:53:44.824Z,97558.22
2023-03-02T21:56:20.570Z,97554.94
2023-03-02T21:58:51.331Z,97552.97
2023-03-02T22:01:18.084Z,97544.81
2023-03-02T22:03:45.119Z,97542.63
2023-03-02T22:06:26.461Z,97557.41
2023-03-02T22:08:53.955Z,97538.97
2023-03-02T22:11:23.837Z,97543.88
2023-03-02T22:13:52.124Z,97549.59
2023-03-02T22:16:21.985Z,97537.28
2023-03-02T22:18:53.584Z,97540.72
2023-03-02T22:21:36.226Z,97551.63
2023-03-02T22:24:22.883Z,97557.75
2023-03-02T22:27:18.272Z,97562.22
2023-03-02T22:29:47.020Z,97563.03
2023-03-02T22:32:44.021Z,97557.91
2023-03-02T22:35:25.729Z,97564.44
2023-03-02T22:38:00.138Z,97569.09
2023-03-02T22:40:32.672Z,97569.63
2023-03-02T22:43:19.406Z,97557.72
2023-03-02T22:45:46.036Z,97567.06
2023-03-02T22:48:20.948Z,97570.09
2023-03-02T22:50:49.523Z,97570.69
2023-03-02T22:53:31.051Z,97571.47
2023-03-02T22:56:03.568Z,97576.19
2023-03-02T22:58:44.953Z,97574.75
2023-03-02T23:01:20.982Z,97576.47
2023-03-02T23:03:50.752Z,97583.63
2023-03-02T23:06:31.728Z,97586.41
2023-03-02T23:09:01.834Z,97584.47
2023-03-02T23:11:33.777Z,97586.06
2023-03-02T23:14:02.965Z,97594.16
2023-03-02T23:16:35.801Z,97594.38
2023-03-02T23:19:03.986Z,97597.53
2023-03-02T23:21:48.972Z,97589.59
2023-03-02T23:24:17.758Z,97588.66
2023-03-02T23:26:44.855Z,97593.13
2023-03-02T23:29:11.610Z,97594.06
2023-03-02T23:31:38.533Z,97591.63
2023-03-02T23:34:05.570Z,97595.22
2023-03-02T23:36:32.261Z,97592.06
2023-03-02T23:38:59.027Z,97591.63
2023-03-02T23:41:26.746Z,97590.69
2023-03-02T23:43:53.420Z,97597.59
2023-03-02T23:46:20.301Z,97590.25
2023-03-02T23:48:47.880Z,97597.31
2023-03-02T23:51:15.042Z,97597.31
2023-03-02T23:53:41.797Z,97604.00
2023-03-02T23:56:08.484Z,97610.03
2023-03-02T23:58:35.290Z,97617.38
